KMRF/MRF METAR and TAF weather

Enter ICAO airport designator
Station Type Date Time Source
KMRF METAR 2020/01/27 13:56 UTC NOAA

KMRF 271356Z AUTO 00000KT 10SM CLR 01/M02 A3008 RMK AO2 SLP179 T00111017 FZRANO


Station Type Date Time Source
KMRF Decoded METAR 2020/01/27 13:56 UTC NOAA

Marfa, TX, United States (KMRF) 30-22N 104-01W 1481M
Jan 27, 2020 - 08:56 AM EST / 2020.01.27 1356 UTC
Wind: Calm:0
Visibility: 10 mile(s):0
Sky conditions: clear
Temperature: 34.0 F (1.1 C)
Dew Point: 28.9 F (-1.7 C)
Relative Humidity: 81%
Pressure (altimeter): 30.08 in. Hg (1018 hPa)
ob: KMRF 271356Z AUTO 00000KT 10SM CLR 01/M02 A3008 RMK AO2 SLP179 T00111017 FZRANO
cycle: 14

Station Type Date Time Source
KMRF TAF UTC NOAA

Error!

Example: see airport list